Time;durP1;ratioP1;P1;durP2;ratioP2;P2;SDS_P1;SDS_P2;PMS_P1;PMS_P2;Temp;Humidity;BMP_temperature;BMP_pressure;BME280_temperature;BME280_humidity;BME280_pressure;Samples;Min_cycle;Max_cycle;Signal;HPM_P1;HPM_P2
2023/09/06 00:00:29;;;;;;;7.22;1.63;;;20.00;99.90;;;;;;5127422;27;20027;-90
2023/09/06 00:02:57;;;;;;;10.52;2.13;;;19.80;99.90;;;;;;5118542;27;20027;-89
2023/09/06 00:05:23;;;;;;;7.53;1.50;;;19.70;99.90;;;;;;5125439;27;20034;-90
2023/09/06 00:07:49;;;;;;;7.55;2.65;;;19.50;99.90;;;;;;5133461;27;20028;-90
2023/09/06 00:10:15;;;;;;;2.65;1.73;;;19.40;99.90;;;;;;5138148;27;20549;-89
2023/09/06 00:12:45;;;;;;;2.25;1.50;;;19.20;99.90;;;;;;5136910;27;20027;-89
2023/09/06 00:15:11;;;;;;;3.55;1.80;;;19.10;99.90;;;;;;5127524;27;20027;-89
2023/09/06 00:17:38;;;;;;;3.42;2.22;;;19.00;99.90;;;;;;5120319;27;20047;-90
2023/09/06 00:20:20;;;;;;;4.25;1.80;;;18.90;99.90;;;;;;5123565;27;20050;-88
2023/09/06 00:22:56;;;;;;;3.20;2.08;;;18.80;99.90;;;;;;5121846;27;20487;-90
2023/09/06 00:25:22;;;;;;;4.78;2.28;;;18.70;99.90;;;;;;5125095;27;20023;-89
2023/09/06 00:27:50;;;;;;;3.33;1.92;;;18.60;99.90;;;;;;5132361;27;20049;-89
2023/09/06 00:30:16;;;;;;;7.45;2.45;;;18.60;99.90;;;;;;5134339;27;20072;-90
2023/09/06 00:32:41;;;;;;;6.63;2.38;;;18.50;99.90;;;;;;5120775;27;20437;-89
2023/09/06 00:35:07;;;;;;;3.55;2.40;;;18.40;99.90;;;;;;5117803;27;20024;-89
2023/09/06 00:37:42;;;;;;;3.08;2.00;;;18.40;99.90;;;;;;5134264;27;20027;-88
2023/09/06 00:40:17;;;;;;;2.30;1.58;;;18.40;99.90;;;;;;5097855;27;20074;-89
2023/09/06 00:42:59;;;;;;;1.88;1.50;;;18.40;99.90;;;;;;5130449;27;20480;-89
2023/09/06 00:45:39;;;;;;;5.32;1.98;;;18.50;99.90;;;;;;5114291;27;20118;-90
2023/09/06 00:48:06;;;;;;;3.20;1.90;;;18.60;99.90;;;;;;5130929;27;20084;-89
2023/09/06 00:50:36;;;;;;;2.67;1.52;;;18.70;99.90;;;;;;5135129;27;20043;-90
2023/09/06 00:53:05;;;;;;;6.18;1.98;;;18.80;99.90;;;;;;5144606;27;20027;-90
2023/09/06 00:55:31;;;;;;;3.10;1.58;;;19.00;99.90;;;;;;5124529;27;20719;-89
2023/09/06 00:57:57;;;;;;;3.88;1.73;;;19.20;99.90;;;;;;5128432;27;20031;-88
2023/09/06 01:00:24;;;;;;;7.03;1.90;;;19.30;99.90;;;;;;5116202;27;20029;-88
2023/09/06 01:02:50;;;;;;;2.78;1.70;;;19.30;99.90;;;;;;5147350;27;20045;-89
2023/09/06 01:05:17;;;;;;;2.83;1.63;;;19.30;99.90;;;;;;5144147;27;20038;-89
2023/09/06 01:07:49;;;;;;;2.85;1.58;;;19.30;99.90;;;;;;5139649;27;20030;-88
2023/09/06 01:10:15;;;;;;;2.53;1.80;;;19.30;99.90;;;;;;5122992;27;20023;-88
2023/09/06 01:12:41;;;;;;;3.03;2.00;;;19.30;99.90;;;;;;5137646;27;20170;-89
2023/09/06 01:15:11;;;;;;;3.38;1.92;;;19.30;99.90;;;;;;5123307;27;20023;-88
2023/09/06 01:17:38;;;;;;;2.47;1.90;;;19.20;99.90;;;;;;5146755;27;20114;-89
2023/09/06 01:20:29;;;;;;;3.63;1.90;;;19.30;99.90;;;;;;5122012;27;20027;-89
2023/09/06 01:23:04;;;;;;;5.05;2.08;;;19.20;99.90;;;;;;5138058;27;20094;-89
2023/09/06 01:25:30;;;;;;;3.35;1.80;;;19.10;99.90;;;;;;5145287;27;20500;-89
2023/09/06 01:27:56;;;;;;;4.95;1.60;;;19.10;99.90;;;;;;5129778;27;20037;-89
2023/09/06 01:30:27;;;;;;;3.38;1.67;;;19.00;99.90;;;;;;5141207;27;20027;-89
2023/09/06 01:32:52;;;;;;;4.53;1.75;;;18.80;99.90;;;;;;5141675;27;20109;-89
2023/09/06 01:35:19;;;;;;;3.67;1.67;;;18.70;99.90;;;;;;5145652;27;20110;-89
2023/09/06 01:37:44;;;;;;;3.83;1.65;;;18.60;99.90;;;;;;5136808;27;20723;-89
2023/09/06 01:40:17;;;;;;;2.63;1.85;;;18.50;99.90;;;;;;5128324;27;20049;-89
2023/09/06 01:42:45;;;;;;;7.90;1.80;;;18.40;99.90;;;;;;5127325;27;20026;-89
2023/09/06 01:45:10;;;;;;;5.95;2.00;;;18.30;99.90;;;;;;5120873;27;20063;-89
2023/09/06 01:47:36;;;;;;;3.03;1.92;;;18.20;99.90;;;;;;5129082;27;20031;-89
2023/09/06 01:50:04;;;;;;;6.18;1.83;;;18.10;99.90;;;;;;5136217;27;20026;-88
2023/09/06 01:52:29;;;;;;;3.75;2.35;;;18.00;99.90;;;;;;5121779;27;20053;-87
2023/09/06 01:54:55;;;;;;;5.25;1.80;;;18.00;99.90;;;;;;5139275;27;20024;-88
2023/09/06 01:57:21;;;;;;;4.60;2.33;;;17.90;99.90;;;;;;5120226;27;20023;-89
2023/09/06 01:59:50;;;;;;;5.40;2.28;;;17.90;99.90;;;;;;5137447;27;20023;-89
2023/09/06 02:02:16;;;;;;;6.00;2.42;;;17.90;99.90;;;;;;5119982;27;20030;-89
2023/09/06 02:04:41;;;;;;;6.82;2.30;;;17.80;99.90;;;;;;5132274;27;20099;-88
2023/09/06 02:07:08;;;;;;;2.70;2.20;;;17.70;99.90;;;;;;5137593;27;20098;-89
2023/09/06 02:09:34;;;;;;;3.22;2.15;;;17.60;99.90;;;;;;5128555;27;20025;-88
2023/09/06 02:11:59;;;;;;;4.95;2.50;;;17.60;99.90;;;;;;5147114;27;20019;-88
2023/09/06 02:14:25;;;;;;;3.55;1.85;;;17.50;99.90;;;;;;5146661;27;20063;-88
2023/09/06 02:16:51;;;;;;;4.28;2.08;;;17.50;99.90;;;;;;5113492;27;20026;-89
2023/09/06 02:19:16;;;;;;;2.50;2.00;;;17.50;99.90;;;;;;5139045;27;20019;-88
2023/09/06 02:21:42;;;;;;;3.17;1.88;;;17.50;99.90;;;;;;5144085;27;20023;-88
2023/09/06 02:24:08;;;;;;;4.60;2.25;;;17.40;99.90;;;;;;5127466;27;20061;-89
2023/09/06 02:26:37;;;;;;;7.22;2.10;;;17.40;99.90;;;;;;5113900;27;20055;-89
2023/09/06 02:29:04;;;;;;;2.78;2.25;;;17.30;99.90;;;;;;5118638;27;20036;-89
2023/09/06 02:31:29;;;;;;;3.28;2.17;;;17.30;99.90;;;;;;5124602;27;20110;-88
2023/09/06 02:33:55;;;;;;;5.63;2.17;;;17.20;99.90;;;;;;5119495;27;20043;-89
2023/09/06 02:36:21;;;;;;;5.30;2.17;;;17.20;99.90;;;;;;5130179;27;20043;-88
2023/09/06 02:38:47;;;;;;;4.22;2.20;;;17.20;99.90;;;;;;5123968;27;20123;-89
2023/09/06 02:41:20;;;;;;;3.53;2.00;;;17.10;99.90;;;;;;5145510;27;20089;-88
2023/09/06 02:43:46;;;;;;;4.40;2.30;;;17.10;99.90;;;;;;5113383;27;20035;-89
2023/09/06 02:46:12;;;;;;;2.20;1.95;;;17.10;99.90;;;;;;5131141;27;20087;-88
2023/09/06 02:48:38;;;;;;;4.82;2.63;;;17.00;99.90;;;;;;5119739;27;20072;-88
2023/09/06 02:51:07;;;;;;;5.57;2.53;;;17.00;99.90;;;;;;5127383;27;20379;-88
2023/09/06 02:53:33;;;;;;;9.73;2.75;;;17.00;99.90;;;;;;5125980;27;20034;-88
2023/09/06 02:55:59;;;;;;;4.32;2.20;;;17.00;99.90;;;;;;5136812;27;20387;-89
2023/09/06 02:58:25;;;;;;;4.07;2.42;;;16.90;99.90;;;;;;5125678;27;20192;-87
2023/09/06 03:00:55;;;;;;;2.20;1.92;;;17.00;99.90;;;;;;5121572;27;20049;-89
2023/09/06 03:03:21;;;;;;;3.17;2.30;;;16.90;99.90;;;;;;5130311;27;20043;-88
2023/09/06 03:05:47;;;;;;;3.58;2.20;;;16.90;99.90;;;;;;5132066;27;20058;-89
2023/09/06 03:08:13;;;;;;;6.35;3.42;;;16.90;99.90;;;;;;5135846;27;20057;-89
2023/09/06 03:10:41;;;;;;;3.22;2.58;;;16.80;99.90;;;;;;5129877;27;20034;-87
2023/09/06 03:13:08;;;;;;;2.80;2.15;;;16.80;99.90;;;;;;5136893;27;20115;-88
2023/09/06 03:15:34;;;;;;;7.22;2.60;;;16.80;99.90;;;;;;5125819;27;20034;-89
2023/09/06 03:18:02;;;;;;;5.20;2.95;;;16.70;99.90;;;;;;5135638;27;20109;-89
2023/09/06 03:20:33;;;;;;;5.55;2.80;;;16.70;99.90;;;;;;5116297;27;20019;-88
2023/09/06 03:23:17;;;;;;;5.97;2.50;;;16.70;99.90;;;;;;5141233;27;20088;-88
2023/09/06 03:25:45;;;;;;;4.57;2.70;;;16.70;99.90;;;;;;5115994;27;20327;-88
2023/09/06 03:28:12;;;;;;;2.50;2.03;;;16.70;99.90;;;;;;5109873;27;20429;-88
2023/09/06 03:30:38;;;;;;;3.28;2.55;;;16.70;99.90;;;;;;5133817;27;20034;-88
2023/09/06 03:33:05;;;;;;;9.57;2.80;;;16.60;99.90;;;;;;5118738;27;20047;-88
2023/09/06 03:35:31;;;;;;;3.00;2.17;;;16.70;99.90;;;;;;5129595;27;20023;-89
2023/09/06 03:38:25;;;;;;;3.40;2.53;;;16.60;99.90;;;;;;5125256;27;20476;-89
2023/09/06 03:40:44;;;;;;;4.05;2.65;;;16.60;99.90;;;;;;5107721;27;20051;-88
2023/09/06 03:43:16;;;;;;;3.20;2.40;;;16.60;99.90;;;;;;5122915;27;20521;-88
2023/09/06 03:45:51;;;;;;;3.03;2.72;;;16.50;99.90;;;;;;5092455;28;20096;-88
2023/09/06 03:48:22;;;;;;;2.85;2.30;;;16.50;99.90;;;;;;5117441;27;20114;-88
2023/09/06 03:50:56;;;;;;;2.53;2.33;;;16.50;99.90;;;;;;5115341;27;20464;-89
2023/09/06 03:53:26;;;;;;;2.42;2.03;;;16.50;99.90;;;;;;5109016;27;20392;-89
2023/09/06 03:56:01;;;;;;;2.97;2.58;;;16.50;99.90;;;;;;5105917;27;20032;-88
2023/09/06 03:58:29;;;;;;;4.15;2.80;;;16.50;99.90;;;;;;5100357;28;20027;-88
2023/09/06 04:00:55;;;;;;;4.18;2.85;;;16.50;99.90;;;;;;5120770;27;20035;-88
2023/09/06 04:03:22;;;;;;;3.40;2.33;;;16.50;99.90;;;;;;5117229;27;20035;-88
2023/09/06 04:05:51;;;;;;;4.32;2.28;;;16.50;99.90;;;;;;5101401;27;20027;-88
2023/09/06 04:08:28;;;;;;;5.28;2.70;;;16.50;99.90;;;;;;5125674;27;20088;-88
2023/09/06 04:10:54;;;;;;;6.50;2.85;;;16.40;99.90;;;;;;5127263;27;20041;-89
2023/09/06 04:13:23;;;;;;;3.95;2.20;;;16.40;99.90;;;;;;5119567;27;20106;-88
2023/09/06 04:15:49;;;;;;;4.78;2.53;;;16.40;99.90;;;;;;5127583;27;20038;-89
2023/09/06 04:18:15;;;;;;;2.95;2.50;;;16.30;99.90;;;;;;5126617;27;20024;-88
2023/09/06 04:20:46;;;;;;;3.47;2.42;;;16.30;99.90;;;;;;5117333;27;20023;-89
2023/09/06 04:23:16;;;;;;;4.72;2.60;;;16.30;99.90;;;;;;5116420;27;20247;-91
2023/09/06 04:25:43;;;;;;;2.92;2.45;;;16.30;99.90;;;;;;5103090;27;20050;-88
2023/09/06 04:28:16;;;;;;;7.25;2.58;;;16.30;99.90;;;;;;5129045;27;20030;-87
2023/09/06 04:30:45;;;;;;;5.10;2.47;;;16.30;99.90;;;;;;5130315;27;20475;-89
2023/09/06 04:33:14;;;;;;;5.82;2.15;;;16.20;99.90;;;;;;5123717;27;20412;-94
2023/09/06 04:35:47;;;;;;;4.18;2.65;;;16.20;99.90;;;;;;5123060;27;20388;-87
2023/09/06 04:38:19;;;;;;;4.75;2.70;;;16.20;99.90;;;;;;5123353;27;20385;-87
2023/09/06 04:40:46;;;;;;;2.75;2.45;;;16.20;99.90;;;;;;5113926;27;20036;-88
2023/09/06 04:43:16;;;;;;;3.40;2.65;;;16.10;99.90;;;;;;5123198;27;20027;-88
2023/09/06 04:45:42;;;;;;;2.60;2.30;;;16.10;99.90;;;;;;5107702;27;20023;-88
2023/09/06 04:48:11;;;;;;;3.13;2.60;;;16.10;99.90;;;;;;5102742;27;20027;-88
2023/09/06 04:50:40;;;;;;;3.55;2.67;;;16.10;99.90;;;;;;5123623;27;20460;-88
2023/09/06 04:53:11;;;;;;;4.47;3.00;;;16.10;99.90;;;;;;5144129;27;20468;-87
2023/09/06 04:55:38;;;;;;;3.22;2.47;;;16.10;99.90;;;;;;5146108;27;20031;-87
2023/09/06 04:58:08;;;;;;;4.05;2.78;;;16.10;99.90;;;;;;5120281;27;20488;-87
2023/09/06 05:00:43;;;;;;;3.40;2.58;;;16.10;99.90;;;;;;5124937;27;20027;-86
2023/09/06 05:03:11;;;;;;;3.72;2.55;;;16.10;99.90;;;;;;5122328;27;20057;-87
2023/09/06 05:05:38;;;;;;;3.20;2.65;;;16.10;99.90;;;;;;5129069;27;20049;-88
2023/09/06 05:08:04;;;;;;;6.18;2.42;;;16.10;99.90;;;;;;5133146;27;20022;-88
2023/09/06 05:10:30;;;;;;;3.70;2.72;;;16.10;99.90;;;;;;5135182;27;20023;-87
2023/09/06 05:12:56;;;;;;;6.38;2.67;;;16.00;99.90;;;;;;5116412;27;20441;-88
2023/09/06 05:15:22;;;;;;;7.57;2.72;;;16.10;99.90;;;;;;5100704;27;20062;-87
2023/09/06 05:17:47;;;;;;;2.58;2.33;;;16.10;99.90;;;;;;5121774;27;20509;-88
2023/09/06 05:20:31;;;;;;;2.30;2.10;;;16.10;99.90;;;;;;5145762;27;20130;-88
2023/09/06 05:23:10;;;;;;;2.80;2.50;;;16.10;99.90;;;;;;5118088;27;20035;-88
2023/09/06 05:25:36;;;;;;;2.92;2.63;;;16.20;99.90;;;;;;5132322;27;20035;-88
2023/09/06 05:28:09;;;;;;;4.75;2.65;;;16.20;99.90;;;;;;5129223;27;20030;-88
2023/09/06 05:30:43;;;;;;;4.18;2.47;;;16.30;99.90;;;;;;5129621;27;20030;-88
2023/09/06 05:33:10;;;;;;;2.53;2.33;;;16.40;99.90;;;;;;5136261;27;20039;-87
2023/09/06 05:35:36;;;;;;;7.00;2.53;;;16.30;99.90;;;;;;5115734;27;20031;-87
2023/09/06 05:38:05;;;;;;;2.85;2.35;;;16.40;99.90;;;;;;5133756;27;20391;-89
2023/09/06 05:40:33;;;;;;;5.68;2.85;;;16.40;99.90;;;;;;5125902;27;20039;-89
2023/09/06 05:43:00;;;;;;;3.08;2.10;;;16.40;99.90;;;;;;5134424;27;20117;-89
2023/09/06 05:45:26;;;;;;;5.07;2.58;;;16.40;99.90;;;;;;5131942;27;20106;-89
2023/09/06 05:47:53;;;;;;;2.70;2.33;;;16.50;99.90;;;;;;5114076;27;20392;-89
2023/09/06 05:50:19;;;;;;;4.13;2.88;;;16.50;99.90;;;;;;5112754;27;20038;-89
2023/09/06 05:52:44;;;;;;;9.15;3.13;;;16.50;99.90;;;;;;5122953;27;20057;-89
2023/09/06 05:55:10;;;;;;;4.40;2.85;;;16.60;99.90;;;;;;5122444;27;20053;-88
2023/09/06 05:57:37;;;;;;;3.70;2.50;;;16.60;99.90;;;;;;5134286;27;20031;-89
2023/09/06 06:00:06;;;;;;;5.72;2.75;;;16.70;99.90;;;;;;5129820;27;20471;-89
2023/09/06 06:02:35;;;;;;;4.30;2.75;;;16.70;99.90;;;;;;5117418;27;20023;-88
2023/09/06 06:05:00;;;;;;;4.93;2.83;;;16.70;99.90;;;;;;5126136;27;20027;-89
2023/09/06 06:07:26;;;;;;;2.78;2.47;;;16.80;99.90;;;;;;5099361;27;20027;-88
2023/09/06 06:09:52;;;;;;;3.58;2.53;;;16.80;99.90;;;;;;5120375;27;20227;-89
2023/09/06 06:12:22;;;;;;;3.85;3.20;;;16.90;99.90;;;;;;5132984;27;20483;-89
2023/09/06 06:14:49;;;;;;;3.00;2.63;;;17.00;99.90;;;;;;5118774;27;20532;-88
2023/09/06 06:17:15;;;;;;;8.60;2.65;;;17.10;99.90;;;;;;5126794;27;20486;-89
2023/09/06 06:19:40;;;;;;;7.68;2.53;;;17.10;99.90;;;;;;5135252;27;20034;-88
2023/09/06 06:22:06;;;;;;;5.07;3.03;;;17.20;99.90;;;;;;5132310;27;20072;-89
2023/09/06 06:24:35;;;;;;;5.55;3.47;;;17.20;99.90;;;;;;5122156;27;20058;-88
2023/09/06 06:27:01;;;;;;;9.20;3.35;;;17.30;99.90;;;;;;5132853;27;20019;-89
2023/09/06 06:29:26;;;;;;;3.03;2.67;;;17.40;99.90;;;;;;5126603;27;20047;-89
2023/09/06 06:31:52;;;;;;;5.35;2.92;;;17.50;99.90;;;;;;5126581;27;20963;-88
2023/09/06 06:34:18;;;;;;;7.25;3.17;;;17.50;99.90;;;;;;5129002;27;20038;-89
2023/09/06 06:36:47;;;;;;;5.15;2.90;;;17.60;99.90;;;;;;5123541;27;20085;-88
2023/09/06 06:39:14;;;;;;;9.82;3.17;;;17.70;99.90;;;;;;5132287;27;20076;-88
2023/09/06 06:41:41;;;;;;;11.13;3.60;;;17.80;99.90;;;;;;5127655;27;20058;-88
2023/09/06 06:44:08;;;;;;;9.70;3.40;;;17.90;99.90;;;;;;5120361;27;20038;-89
2023/09/06 06:46:36;;;;;;;5.40;3.05;;;18.00;99.90;;;;;;5118165;27;20028;-88
2023/09/06 06:49:04;;;;;;;5.00;2.88;;;18.10;99.90;;;;;;5118351;27;20031;-89
2023/09/06 06:51:40;;;;;;;5.55;2.42;;;18.20;99.90;;;;;;5132128;27;20029;-88
2023/09/06 06:54:10;;;;;;;5.05;2.50;;;18.20;99.90;;;;;;5122661;27;20110;-88
2023/09/06 06:56:36;;;;;;;4.47;2.70;;;18.30;99.90;;;;;;5145452;27;20391;-88
2023/09/06 06:59:03;;;;;;;4.65;2.55;;;18.40;99.90;;;;;;5121748;27;20023;-89
2023/09/06 07:01:30;;;;;;;5.60;2.42;;;18.40;99.90;;;;;;5142489;27;20054;-88
2023/09/06 07:03:57;;;;;;;5.28;2.33;;;18.60;99.90;;;;;;5125611;27;20031;-87
2023/09/06 07:06:24;;;;;;;2.88;2.40;;;18.70;99.90;;;;;;5111688;27;20046;-89
2023/09/06 07:08:51;;;;;;;4.72;2.60;;;18.80;99.90;;;;;;5117214;27;20031;-89
2023/09/06 07:11:17;;;;;;;3.05;2.30;;;18.90;99.90;;;;;;5129208;27;20081;-89
2023/09/06 07:13:45;;;;;;;3.63;2.33;;;18.90;99.90;;;;;;5116442;27;20038;-89
2023/09/06 07:16:11;;;;;;;5.55;3.00;;;19.00;99.90;;;;;;5126424;27;20035;-88
2023/09/06 07:18:36;;;;;;;3.90;2.63;;;19.10;99.90;;;;;;5117115;27;20461;-88
2023/09/06 07:21:02;;;;;;;4.93;2.95;;;19.10;99.90;;;;;;5133269;27;20019;-90
2023/09/06 07:23:28;;;;;;;4.50;2.72;;;19.20;99.90;;;;;;5124148;27;20111;-88
2023/09/06 07:25:55;;;;;;;7.28;2.22;;;19.30;99.90;;;;;;5143451;27;20137;-88
2023/09/06 07:28:29;;;;;;;6.60;3.05;;;19.30;99.90;;;;;;5128801;27;20032;-88
2023/09/06 07:30:56;;;;;;;12.68;3.00;;;19.40;99.90;;;;;;5122847;27;20038;-89
2023/09/06 07:33:21;;;;;;;4.05;2.78;;;19.50;99.90;;;;;;5131957;27;20356;-88
2023/09/06 07:35:47;;;;;;;7.22;2.75;;;19.50;99.90;;;;;;5121599;27;20029;-87
2023/09/06 07:38:12;;;;;;;3.35;2.20;;;19.60;99.90;;;;;;5119623;27;20031;-88
2023/09/06 07:40:38;;;;;;;8.10;2.20;;;19.70;99.90;;;;;;5124329;27;20114;-87
2023/09/06 07:43:04;;;;;;;5.68;2.58;;;19.70;99.90;;;;;;5124801;27;20027;-87
2023/09/06 07:45:29;;;;;;;2.97;2.28;;;19.80;99.90;;;;;;5135874;27;20604;-88
2023/09/06 07:47:55;;;;;;;11.27;2.30;;;19.90;99.90;;;;;;5146723;27;20030;-88
2023/09/06 07:50:20;;;;;;;2.42;2.22;;;20.00;99.90;;;;;;5144321;27;20091;-87
2023/09/06 07:52:46;;;;;;;3.15;2.08;;;20.00;99.90;;;;;;5133334;27;20392;-89
2023/09/06 07:55:13;;;;;;;6.05;2.22;;;20.10;99.90;;;;;;5124454;27;20023;-89
2023/09/06 07:57:39;;;;;;;6.57;2.78;;;20.20;99.90;;;;;;5134021;27;20031;-90
2023/09/06 08:00:06;;;;;;;16.25;2.50;;;20.20;99.90;;;;;;5129954;27;20027;-88
2023/09/06 08:02:32;;;;;;;5.72;1.98;;;20.30;99.90;;;;;;5138591;27;20183;-89
2023/09/06 08:04:57;;;;;;;2.53;2.00;;;20.40;99.90;;;;;;5111858;27;20410;-89
2023/09/06 08:07:24;;;;;;;4.38;2.25;;;20.40;99.90;;;;;;5146221;27;20027;-89
2023/09/06 08:09:50;;;;;;;2.65;1.90;;;20.50;99.90;;;;;;5150145;27;20413;-88
2023/09/06 08:12:15;;;;;;;7.57;2.25;;;20.50;99.90;;;;;;5148022;27;20023;-89
2023/09/06 08:14:42;;;;;;;3.15;2.13;;;20.50;99.90;;;;;;5144852;27;20071;-88
2023/09/06 08:17:08;;;;;;;16.60;3.92;;;20.60;99.90;;;;;;5129742;27;20020;-89
2023/09/06 08:19:34;;;;;;;30.10;4.15;;;20.60;99.90;;;;;;5106652;27;20034;-87
2023/09/06 08:21:59;;;;;;;14.02;3.33;;;20.70;99.90;;;;;;5140386;27;20397;-88
2023/09/06 08:24:25;;;;;;;8.48;2.80;;;20.70;99.90;;;;;;5145773;27;20111;-88
2023/09/06 08:26:51;;;;;;;1764.75;221.75;;;20.70;99.90;;;;;;5134002;27;20116;-88
2023/09/06 08:29:16;;;;;;;627.20;84.80;;;20.70;99.90;;;;;;5131193;27;20601;-89
2023/09/06 08:31:44;;;;;;;249.27;34.38;;;20.80;99.90;;;;;;5133124;27;20407;-89
2023/09/06 08:34:11;;;;;;;101.47;17.13;;;20.90;99.90;;;;;;5132675;27;20479;-90
2023/09/06 08:36:36;;;;;;;51.15;8.23;;;20.90;99.90;;;;;;5139880;27;20030;-88
2023/09/06 08:39:03;;;;;;;9.68;4.82;;;20.90;99.90;;;;;;5128975;27;20025;-89
2023/09/06 08:41:31;;;;;;;9.23;2.90;;;21.00;99.90;;;;;;5137971;27;20052;-89
2023/09/06 08:44:06;;;;;;;8.93;3.33;;;21.10;99.90;;;;;;5141579;27;20034;-89
2023/09/06 08:46:38;;;;;;;8.13;4.28;;;21.10;99.90;;;;;;5137883;27;20090;-89
2023/09/06 08:49:04;;;;;;;18.60;4.10;;;21.20;99.90;;;;;;5140063;27;20059;-89
2023/09/06 08:51:36;;;;;;;14.25;3.80;;;21.20;99.90;;;;;;5131979;27;20058;-89
2023/09/06 08:54:05;;;;;;;11.57;3.38;;;21.30;99.90;;;;;;5135135;27;20513;-89
2023/09/06 08:56:35;;;;;;;20.38;5.95;;;21.30;99.90;;;;;;5124330;27;20479;-89
2023/09/06 08:59:02;;;;;;;27.92;22.70;;;21.40;99.90;;;;;;5125975;27;20533;-89
2023/09/06 09:01:28;;;;;;;56.25;15.20;;;21.40;99.90;;;;;;5131004;27;20027;-89
2023/09/06 09:03:55;;;;;;;16.88;8.52;;;21.50;99.90;;;;;;5131827;27;20031;-91
2023/09/06 09:06:20;;;;;;;143.15;13.35;;;21.50;99.90;;;;;;5144168;27;20027;-90
2023/09/06 09:08:47;;;;;;;72.30;7.88;;;21.60;99.90;;;;;;5141420;27;20041;-89
2023/09/06 09:11:14;;;;;;;19.40;5.05;;;21.60;99.90;;;;;;5140917;27;20030;-89
2023/09/06 09:13:41;;;;;;;9.05;4.07;;;21.70;99.90;;;;;;5145424;27;20050;-89
2023/09/06 09:16:12;;;;;;;19.50;3.15;;;21.70;99.90;;;;;;5142513;27;20022;-89
2023/09/06 09:18:40;;;;;;;108.88;9.23;;;21.80;99.90;;;;;;5135365;27;20076;-89
2023/09/06 09:21:10;;;;;;;23.88;4.45;;;21.80;99.90;;;;;;5128797;27;20520;-89
2023/09/06 09:23:43;;;;;;;4.22;2.35;;;21.90;99.90;;;;;;5129792;27;20045;-89
2023/09/06 09:26:09;;;;;;;7.70;2.72;;;22.00;99.90;;;;;;5137935;27;20035;-89
2023/09/06 09:28:35;;;;;;;3.42;2.40;;;22.10;99.90;;;;;;5145699;27;20027;-88
2023/09/06 09:31:02;;;;;;;4.70;2.55;;;22.20;99.90;;;;;;5103003;27;20630;-89
2023/09/06 09:33:29;;;;;;;4.18;2.85;;;22.20;99.90;;;;;;5124521;27;20041;-88
2023/09/06 09:35:55;;;;;;;3.33;2.42;;;22.30;99.90;;;;;;5131825;27;21115;-88
2023/09/06 09:38:21;;;;;;;7.13;2.70;;;22.30;99.90;;;;;;5129514;27;20038;-89
2023/09/06 09:41:05;;;;;;;7.53;2.83;;;22.40;99.90;;;;;;5123038;27;20043;-89
2023/09/06 09:43:31;;;;;;;7.82;2.65;;;22.50;99.90;;;;;;5098801;27;20031;-88
2023/09/06 09:45:57;;;;;;;2.95;2.40;;;22.60;99.90;;;;;;5133107;27;20109;-90
2023/09/06 09:48:34;;;;;;;4.97;2.00;;;22.70;99.90;;;;;;5102665;27;20023;-88
2023/09/06 09:51:59;;;;;;;3.85;2.13;;;22.70;99.90;;;;;;5120641;27;20440;-87
2023/09/06 09:54:28;;;;;;;6.20;2.47;;;22.90;99.90;;;;;;5122217;27;20034;-88
2023/09/06 09:57:05;;;;;;;3.67;2.30;;;22.90;99.90;;;;;;5116504;27;20041;-89
2023/09/06 09:59:34;;;;;;;7.68;2.95;;;23.00;99.90;;;;;;5112201;28;20058;-90
2023/09/06 10:02:00;;;;;;;3.85;2.30;;;23.00;99.90;;;;;;5121294;27;20031;-88
2023/09/06 10:04:29;;;;;;;7.68;2.45;;;23.20;99.90;;;;;;5121207;27;20031;-87
2023/09/06 10:06:55;;;;;;;3.60;2.45;;;23.20;99.90;;;;;;5122763;27;20030;-88
2023/09/06 10:09:21;;;;;;;4.25;2.25;;;23.30;99.90;;;;;;5121838;27;20032;-87
2023/09/06 10:11:49;;;;;;;6.50;2.80;;;23.30;99.90;;;;;;5105446;27;20538;-89
2023/09/06 10:14:15;;;;;;;7.05;3.15;;;23.30;99.90;;;;;;5123157;27;20123;-88
2023/09/06 10:16:41;;;;;;;5.97;2.97;;;23.50;99.90;;;;;;5121349;27;20512;-89
2023/09/06 10:19:08;;;;;;;7.38;2.33;;;23.50;99.90;;;;;;5114161;27;20024;-89
2023/09/06 10:21:36;;;;;;;5.88;2.25;;;23.60;99.90;;;;;;5120297;27;20450;-87
2023/09/06 10:24:03;;;;;;;4.47;2.50;;;23.70;99.90;;;;;;5103880;28;20028;-89
2023/09/06 10:26:36;;;;;;;5.68;1.92;;;23.70;99.90;;;;;;5108558;28;20492;-89
2023/09/06 10:29:09;;;;;;;6.15;2.40;;;23.80;99.90;;;;;;5107889;28;20528;-88
2023/09/06 10:31:45;;;;;;;4.32;2.60;;;23.90;99.90;;;;;;5119738;27;20035;-86
2023/09/06 10:34:12;;;;;;;6.80;2.22;;;24.00;99.90;;;;;;5115245;28;20027;-89
2023/09/06 10:36:55;;;;;;;5.78;3.17;;;24.00;99.90;;;;;;5120492;28;20544;-90
2023/09/06 10:39:22;;;;;;;6.93;2.58;;;24.10;99.90;;;;;;5120751;27;20027;-89
2023/09/06 10:42:13;;;;;;;4.40;2.60;;;24.20;99.90;;;;;;5121353;28;20066;-90
2023/09/06 10:44:54;;;;;;;4.82;2.38;;;24.20;99.90;;;;;;5114295;27;20027;-88
2023/09/06 10:47:27;;;;;;;7.00;2.58;;;24.20;99.90;;;;;;5120449;27;20024;-88
2023/09/06 10:50:12;;;;;;;5.80;2.78;;;24.30;99.90;;;;;;5119951;27;20047;-89
2023/09/06 10:52:53;;;;;;;5.10;2.25;;;24.40;99.90;;;;;;5117257;28;20480;-88
2023/09/06 10:55:27;;;;;;;2.95;2.28;;;24.50;99.90;;;;;;5117703;28;20556;-89
2023/09/06 10:57:59;;;;;;;3.30;2.25;;;24.60;99.90;;;;;;5116239;27;20474;-89
2023/09/06 11:00:31;;;;;;;7.90;1.85;;;24.70;99.90;;;;;;5116985;28;20053;-88
2023/09/06 11:03:13;;;;;;;5.88;2.45;;;24.80;99.90;;;;;;5106231;28;20026;-91
2023/09/06 11:05:46;;;;;;;6.55;2.33;;;24.90;99.90;;;;;;5106376;28;20114;-90
2023/09/06 11:08:23;;;;;;;4.35;2.00;;;24.90;99.90;;;;;;5106545;28;20031;-91
2023/09/06 11:10:48;;;;;;;4.30;2.13;;;25.00;99.90;;;;;;5099679;28;20517;-89
2023/09/06 11:13:18;;;;;;;6.13;1.80;;;25.00;99.90;;;;;;5103075;28;20442;-90
2023/09/06 11:15:43;;;;;;;2.97;1.83;;;25.00;99.90;;;;;;5103790;28;20361;-90
2023/09/06 11:18:09;;;;;;;3.22;2.10;;;25.00;99.90;;;;;;5106114;28;20133;-90
2023/09/06 11:20:36;;;;;;;4.80;1.90;;;25.10;99.90;;;;;;5100830;28;20069;-89
2023/09/06 11:23:03;;;;;;;17.75;2.40;;;25.10;99.90;;;;;;5105719;28;20027;-91
2023/09/06 11:25:31;;;;;;;3.53;2.10;;;25.10;99.90;;;;;;5106996;28;20027;-89
2023/09/06 11:28:13;;;;;;;2.75;2.00;;;25.10;99.90;;;;;;5098665;28;20041;-89
2023/09/06 11:30:39;;;;;;;47.42;5.90;;;25.20;99.90;;;;;;5096889;28;20028;-90
2023/09/06 11:33:16;;;;;;;25.98;9.50;;;25.20;99.90;;;;;;5103002;28;20023;-91
2023/09/06 11:35:55;;;;;;;85.35;75.00;;;25.30;99.90;;;;;;5097359;28;20055;-91
2023/09/06 11:38:28;;;;;;;31.23;21.05;;;25.30;99.90;;;;;;5106584;28;20020;-90
2023/09/06 11:40:56;;;;;;;10.85;6.93;;;25.30;99.90;;;;;;5102731;28;20035;-92
2023/09/06 11:43:23;;;;;;;9.35;2.15;;;25.30;99.90;;;;;;5106612;28;20114;-90
2023/09/06 11:45:54;;;;;;;23.55;4.13;;;25.40;99.90;;;;;;5103087;28;20035;-90
2023/09/06 11:48:30;;;;;;;21.30;3.88;;;25.50;99.90;;;;;;5103833;28;20106;-88
2023/09/06 11:51:08;;;;;;;389.40;29.60;;;25.60;99.90;;;;;;5106236;28;20514;-91
2023/09/06 11:53:35;;;;;;;667.33;55.50;;;25.60;99.90;;;;;;5101227;28;20043;-90
2023/09/06 11:56:07;;;;;;;63.53;8.15;;;25.70;99.90;;;;;;5101213;28;20022;-96
2023/09/06 11:58:59;;;;;;;5.85;2.10;;;25.70;99.90;;;;;;5096079;28;20517;-92
2023/09/06 12:01:26;;;;;;;7.57;2.50;;;25.80;99.90;;;;;;5105672;28;20050;-91
2023/09/06 12:04:02;;;;;;;5.80;2.47;;;25.80;99.90;;;;;;5100943;28;20043;-91
2023/09/06 12:06:29;;;;;;;6.10;2.05;;;25.90;99.90;;;;;;5101101;28;20142;-91
2023/09/06 12:08:55;;;;;;;5.57;2.30;;;25.90;99.90;;;;;;5097951;28;20070;-91
2023/09/06 12:11:23;;;;;;;7.43;2.80;;;25.90;99.90;;;;;;5100677;27;20059;-91
2023/09/06 12:13:49;;;;;;;3.65;2.28;;;25.90;99.90;;;;;;5101357;28;20034;-89
2023/09/06 12:16:17;;;;;;;7.20;2.50;;;26.00;99.90;;;;;;5105626;28;20028;-92
2023/09/06 12:18:44;;;;;;;7.10;2.15;;;26.10;99.90;;;;;;5105342;28;20080;-91
2023/09/06 12:21:10;;;;;;;3.17;2.15;;;26.10;99.90;;;;;;5100827;28;20023;-90
2023/09/06 12:23:36;;;;;;;7.07;2.35;;;26.10;99.90;;;;;;5090976;28;20085;-92
2023/09/06 12:26:02;;;;;;;5.65;3.05;;;26.10;99.90;;;;;;5103022;28;20653;-90
2023/09/06 12:28:29;;;;;;;7.40;2.58;;;26.10;99.90;;;;;;5103548;28;20034;-93
2023/09/06 12:30:58;;;;;;;5.13;2.28;;;26.20;99.90;;;;;;5100206;28;20035;-91
2023/09/06 12:33:27;;;;;;;5.70;2.72;;;26.30;99.90;;;;;;5103000;28;20027;-90
2023/09/06 12:35:58;;;;;;;6.20;2.58;;;26.20;99.90;;;;;;5102283;28;20049;-92
2023/09/06 12:38:29;;;;;;;7.40;2.45;;;26.30;99.90;;;;;;5100414;28;20427;-90
2023/09/06 12:40:55;;;;;;;5.75;2.42;;;26.30;99.90;;;;;;5102432;28;20084;-90
2023/09/06 12:43:24;;;;;;;5.03;2.45;;;26.30;99.90;;;;;;5101090;28;20412;-92
2023/09/06 12:45:53;;;;;;;6.50;2.25;;;26.30;99.90;;;;;;5104315;28;20050;-95
2023/09/06 12:48:21;;;;;;;8.18;2.65;;;26.40;99.90;;;;;;5102465;28;20122;-93
2023/09/06 12:50:48;;;;;;;5.70;2.45;;;26.40;99.90;;;;;;5099353;28;20052;-91
2023/09/06 12:53:14;;;;;;;6.57;2.50;;;26.40;99.90;;;;;;5102864;28;20049;-93